Time;durP1;ratioP1;P1;durP2;ratioP2;P2;SDS_P1;SDS_P2;PMS_P1;PMS_P2;Temp;Humidity;BMP_temperature;BMP_pressure;BME280_temperature;BME280_humidity;BME280_pressure;Samples;Min_cycle;Max_cycle;Signal;HPM_P1;HPM_P2
2023/11/04 00:01:55;;;;;;;0.30;0.20;;;;;;;9.60;92.43;97904.41;5033780;28;20466;-49
2023/11/04 00:04:22;;;;;;;0.30;0.20;;;;;;;9.63;92.70;97904.19;5020663;28;20487;-49
2023/11/04 00:06:48;;;;;;;0.30;0.20;;;;;;;9.91;92.24;97898.00;5033076;28;20821;-50
2023/11/04 00:09:16;;;;;;;0.30;0.20;;;;;;;9.67;92.43;97905.69;5013558;28;20423;-49
2023/11/04 00:11:45;;;;;;;0.30;0.20;;;;;;;9.69;92.50;97898.50;5028058;28;20519;-50
2023/11/04 00:14:13;;;;;;;0.30;0.20;;;;;;;9.79;91.81;97897.81;5033352;28;20446;-50
2023/11/04 00:16:39;;;;;;;0.30;0.20;;;;;;;9.67;91.59;97905.69;5033088;28;20863;-49
2023/11/04 00:19:05;;;;;;;0.30;0.20;;;;;;;9.82;91.56;97909.19;5033276;28;20459;-50
2023/11/04 00:21:33;;;;;;;0.30;0.20;;;;;;;9.82;91.56;97901.22;5032929;28;20505;-47
2023/11/04 00:24:00;;;;;;;0.30;0.20;;;;;;;9.75;91.08;97898.97;5033080;28;20474;-50
2023/11/04 00:26:26;;;;;;;0.30;0.20;;;;;;;9.96;92.12;97893.22;5033152;28;20538;-50
2023/11/04 00:28:53;;;;;;;0.30;0.20;;;;;;;9.82;91.34;97893.25;5023806;28;20555;-47
2023/11/04 00:31:19;;;;;;;0.30;0.20;;;;;;;9.88;91.38;97893.75;5023144;28;20941;-51
2023/11/04 00:33:46;;;;;;;0.30;0.20;;;;;;;9.88;92.03;97893.75;5018073;28;20535;-50
2023/11/04 00:36:13;;;;;;;0.30;0.20;;;;;;;9.87;91.52;97896.47;5032066;28;20480;-49
2023/11/04 00:38:39;;;;;;;0.30;0.20;;;;;;;9.99;90.87;97895.66;5019456;28;20455;-49
2023/11/04 00:41:06;;;;;;;0.30;0.20;;;;;;;10.04;90.46;97894.44;5032977;28;20539;-49
2023/11/04 00:43:33;;;;;;;0.30;0.20;;;;;;;9.94;91.31;97892.47;5032802;28;20490;-49
2023/11/04 00:46:00;;;;;;;0.30;0.20;;;;;;;10.02;90.59;97899.00;5023513;28;20488;-50
2023/11/04 00:48:26;;;;;;;0.30;0.20;;;;;;;9.98;90.66;97897.47;5028010;28;20825;-50
2023/11/04 00:50:53;;;;;;;0.30;0.20;;;;;;;9.99;90.89;97893.88;5032725;28;20498;-50
2023/11/04 00:53:19;;;;;;;0.30;0.20;;;;;;;9.97;90.60;97890.47;5032363;28;21341;-49
2023/11/04 00:55:46;;;;;;;0.30;0.20;;;;;;;10.14;90.11;97891.16;5032346;28;21069;-50
2023/11/04 00:58:13;;;;;;;0.30;0.20;;;;;;;9.98;90.49;97894.81;5032395;28;20822;-48
2023/11/04 01:00:40;;;;;;;0.30;0.20;;;;;;;9.89;90.76;97879.53;5032475;28;20538;-48
2023/11/04 01:03:06;;;;;;;0.30;0.20;;;;;;;10.12;89.76;97885.97;5029271;28;20447;-48
2023/11/04 01:05:33;;;;;;;0.30;0.20;;;;;;;9.93;90.49;97886.31;5021151;28;20518;-47
2023/11/04 01:08:00;;;;;;;0.30;0.20;;;;;;;10.05;90.04;97880.22;5032270;28;20451;-47
2023/11/04 01:10:27;;;;;;;0.30;0.20;;;;;;;10.01;90.14;97884.03;5032856;28;20459;-48
2023/11/04 01:12:53;;;;;;;0.30;0.20;;;;;;;10.00;90.53;97892.06;5032111;28;20487;-48
2023/11/04 01:15:20;;;;;;;0.30;0.20;;;;;;;9.98;90.80;97884.22;5032323;28;20464;-48
2023/11/04 01:17:47;;;;;;;0.30;0.20;;;;;;;9.93;90.32;97888.97;5032196;28;20540;-48
2023/11/04 01:20:14;;;;;;;0.30;0.20;;;;;;;10.06;90.35;97873.94;5032178;28;20452;-48
2023/11/04 01:22:40;;;;;;;0.30;0.20;;;;;;;10.02;90.33;97861.00;5031888;28;20509;-48
2023/11/04 01:25:08;;;;;;;0.30;0.20;;;;;;;10.07;90.25;97872.16;5032413;28;20472;-49
2023/11/04 01:27:34;;;;;;;0.30;0.20;;;;;;;10.10;90.03;97861.31;5032117;28;20450;-48
2023/11/04 01:30:01;;;;;;;0.30;0.20;;;;;;;10.12;90.04;97864.72;5031899;28;20447;-49
2023/11/04 01:32:27;;;;;;;0.30;0.20;;;;;;;10.17;90.52;97864.44;5032042;28;20527;-48
2023/11/04 01:34:54;;;;;;;0.30;0.20;;;;;;;10.15;90.23;97861.91;5031947;28;20476;-47
2023/11/04 01:37:25;;;;;;;0.30;0.20;;;;;;;10.20;89.96;97862.44;5032285;28;20455;-50
2023/11/04 01:39:52;;;;;;;0.30;0.20;;;;;;;10.16;90.64;97870.72;5019732;28;20538;-48
2023/11/04 01:42:19;;;;;;;0.30;0.20;;;;;;;10.33;89.45;97865.16;5032239;28;20447;-48
2023/11/04 01:44:46;;;;;;;0.30;0.20;;;;;;;10.21;90.10;97860.63;5032110;28;20472;-48
2023/11/04 01:47:13;;;;;;;0.30;0.20;;;;;;;10.17;90.80;97851.16;5032138;28;20831;-48
2023/11/04 01:49:39;;;;;;;0.30;0.20;;;;;;;10.21;90.84;97860.63;5032225;28;20479;-48
2023/11/04 01:52:06;;;;;;;0.30;0.20;;;;;;;10.11;91.00;97852.41;5031988;28;20491;-48
2023/11/04 01:54:34;;;;;;;0.30;0.20;;;;;;;10.15;90.89;97850.44;5031933;28;21004;-48
2023/11/04 01:57:01;;;;;;;0.30;0.20;;;;;;;10.30;90.46;97852.94;5032144;28;20448;-48
2023/11/04 01:59:28;;;;;;;0.30;0.20;;;;;;;10.26;90.90;97847.91;5032022;28;20534;-48
2023/11/04 02:01:54;;;;;;;0.30;0.20;;;;;;;10.27;90.73;97847.81;5031861;28;20479;-48
2023/11/04 02:04:21;;;;;;;0.30;0.20;;;;;;;10.24;91.26;97847.19;5029779;28;20510;-48
2023/11/04 02:06:48;;;;;;;0.30;0.20;;;;;;;10.24;91.22;97837.41;5032096;28;20584;-48
2023/11/04 02:09:15;;;;;;;0.30;0.20;;;;;;;10.35;90.98;97834.03;5031967;28;20530;-47
2023/11/04 02:11:42;;;;;;;0.30;0.20;;;;;;;10.19;90.86;97836.00;5031724;28;20824;-49
2023/11/04 02:14:09;;;;;;;0.30;0.20;;;;;;;10.26;90.91;97832.84;5031826;28;20546;-48
2023/11/04 02:16:36;;;;;;;0.30;0.20;;;;;;;10.28;91.11;97830.97;5031704;28;20452;-48
2023/11/04 02:19:03;;;;;;;0.30;0.20;;;;;;;10.35;90.75;97834.88;5031783;28;20452;-48
2023/11/04 02:21:29;;;;;;;0.30;0.20;;;;;;;10.35;90.81;97834.03;5031999;28;20490;-48
2023/11/04 02:23:56;;;;;;;0.30;0.20;;;;;;;10.53;90.67;97837.25;5031699;28;20501;-48
2023/11/04 02:26:23;;;;;;;0.30;0.20;;;;;;;10.41;90.68;97830.97;5031798;28;20546;-48
2023/11/04 02:28:49;;;;;;;0.30;0.20;;;;;;;10.43;90.67;97841.50;5031575;28;20530;-48
2023/11/04 02:31:15;;;;;;;0.30;0.20;;;;;;;10.36;91.39;97831.28;5031983;28;20456;-48
2023/11/04 02:33:42;;;;;;;0.30;0.20;;;;;;;10.38;90.78;97832.00;5030439;28;20566;-49
2023/11/04 02:36:09;;;;;;;0.30;0.20;;;;;;;10.54;90.94;97826.50;5034483;28;20825;-48
2023/11/04 02:38:35;;;;;;;0.30;0.20;;;;;;;10.43;90.60;97822.91;5035150;28;20459;-48
2023/11/04 02:41:02;;;;;;;0.30;0.20;;;;;;;10.39;90.86;97822.25;5035070;28;20447;-48
2023/11/04 02:43:28;;;;;;;0.30;0.20;;;;;;;10.44;90.76;97822.81;5035126;28;20448;-48
2023/11/04 02:45:55;;;;;;;0.30;0.20;;;;;;;10.60;90.27;97819.94;5035278;28;20467;-48
2023/11/04 02:48:21;;;;;;;0.30;0.20;;;;;;;10.54;90.14;97812.38;5034914;28;20505;-48
2023/11/04 02:50:48;;;;;;;0.30;0.20;;;;;;;10.55;90.33;97819.41;5034899;28;20444;-48
2023/11/04 02:53:14;;;;;;;0.30;0.20;;;;;;;10.45;90.41;97816.53;5034557;28;20911;-49
2023/11/04 02:55:41;;;;;;;0.30;0.20;;;;;;;10.35;90.47;97815.44;5034574;28;20482;-49
2023/11/04 02:58:07;;;;;;;0.30;0.20;;;;;;;10.41;90.94;97817.69;5034588;28;20554;-49
2023/11/04 03:00:34;;;;;;;0.30;0.20;;;;;;;10.38;90.55;97820.53;5034762;28;20546;-48
2023/11/04 03:03:00;;;;;;;0.30;0.20;;;;;;;10.30;91.22;97814.91;5034623;28;20448;-48
2023/11/04 03:05:27;;;;;;;0.30;0.20;;;;;;;10.32;90.91;97813.84;5024822;28;20484;-48
2023/11/04 03:08:03;;;;;;;0.30;0.20;;;;;;;10.50;90.37;97805.59;5034562;28;20977;-49
2023/11/04 03:10:30;;;;;;;0.30;0.20;;;;;;;10.51;90.66;97809.94;5034484;28;20861;-48
2023/11/04 03:12:56;;;;;;;0.30;0.20;;;;;;;10.53;90.09;97810.69;5034307;28;20487;-48
2023/11/04 03:15:23;;;;;;;0.30;0.20;;;;;;;10.61;90.04;97809.22;5034460;28;20849;-48
2023/11/04 03:17:49;;;;;;;0.30;0.20;;;;;;;10.52;90.61;97815.16;5034401;28;20451;-48
2023/11/04 03:20:16;;;;;;;0.30;0.20;;;;;;;10.55;90.68;97812.31;5034406;28;20451;-48
2023/11/04 03:22:42;;;;;;;0.30;0.20;;;;;;;10.46;90.58;97809.41;5034218;28;20475;-48
2023/11/04 03:25:09;;;;;;;0.30;0.20;;;;;;;10.55;90.16;97804.34;5034017;28;20468;-48
2023/11/04 03:27:36;;;;;;;0.30;0.20;;;;;;;10.48;90.28;97791.56;5034122;28;20456;-48
2023/11/04 03:30:04;;;;;;;0.30;0.20;;;;;;;10.42;90.47;97798.16;5033817;28;20448;-48
2023/11/04 03:32:30;;;;;;;0.30;0.20;;;;;;;10.57;90.35;97799.78;5032893;28;20568;-48
2023/11/04 03:34:57;;;;;;;0.30;0.20;;;;;;;10.74;90.62;97792.44;5034024;28;20559;-48
2023/11/04 03:37:24;;;;;;;0.30;0.20;;;;;;;10.76;89.80;97788.72;5033853;28;20464;-48
2023/11/04 03:39:52;;;;;;;0.30;0.20;;;;;;;10.68;89.96;97780.41;5033675;28;20451;-48
2023/11/04 03:42:19;;;;;;;0.30;0.20;;;;;;;10.45;90.52;97773.19;5033787;28;20452;-48
2023/11/04 03:44:45;;;;;;;0.30;0.20;;;;;;;10.50;90.85;97776.38;5032775;28;20479;-48
2023/11/04 03:47:12;;;;;;;0.30;0.20;;;;;;;10.48;90.34;97784.44;5033387;28;20452;-48
2023/11/04 03:49:38;;;;;;;0.30;0.20;;;;;;;10.49;90.32;97783.50;5033716;28;20447;-48
2023/11/04 03:52:06;;;;;;;0.30;0.20;;;;;;;10.51;90.54;97770.09;5033579;28;20444;-48
2023/11/04 03:54:34;;;;;;;0.30;0.20;;;;;;;10.45;90.47;97767.88;5033344;28;20985;-48
2023/11/04 03:57:01;;;;;;;0.30;0.20;;;;;;;10.48;90.36;97775.63;5033860;28;20452;-49
2023/11/04 03:59:28;;;;;;;0.30;0.20;;;;;;;10.54;90.36;97767.22;5033604;28;20531;-48
2023/11/04 04:01:54;;;;;;;0.30;0.20;;;;;;;10.54;90.19;97765.41;5033503;28;20480;-49
2023/11/04 04:04:21;;;;;;;0.30;0.20;;;;;;;10.57;90.14;97764.38;5029391;28;20574;-48
2023/11/04 04:06:47;;;;;;;0.30;0.20;;;;;;;10.58;89.74;97758.97;5033121;28;20945;-48
2023/11/04 04:09:14;;;;;;;0.30;0.20;;;;;;;10.52;89.23;97751.41;5033197;28;20464;-48
2023/11/04 04:11:40;;;;;;;0.30;0.20;;;;;;;10.53;89.67;97749.59;5033224;28;21020;-48
2023/11/04 04:14:06;;;;;;;0.30;0.20;;;;;;;10.51;90.56;97748.84;5033638;28;20491;-51
2023/11/04 04:16:33;;;;;;;0.30;0.20;;;;;;;10.53;89.91;97746.94;5033274;28;20487;-51
2023/11/04 04:18:59;;;;;;;0.30;0.20;;;;;;;10.68;89.25;97754.69;5032927;28;20452;-50
2023/11/04 04:21:26;;;;;;;0.30;0.20;;;;;;;10.54;89.28;97746.84;5032998;28;20542;-51
2023/11/04 04:23:53;;;;;;;0.30;0.20;;;;;;;10.66;89.44;97748.63;5032920;28;20467;-51
2023/11/04 04:26:20;;;;;;;0.30;0.20;;;;;;;10.52;89.53;97745.25;5033072;28;20452;-51
2023/11/04 04:28:47;;;;;;;0.30;0.20;;;;;;;10.51;89.44;97732.91;5032711;28;20458;-51
2023/11/04 04:31:14;;;;;;;0.30;0.20;;;;;;;10.51;89.80;97728.47;5032963;28;20451;-51
2023/11/04 04:33:41;;;;;;;0.30;0.20;;;;;;;10.59;89.49;97730.59;5031812;28;20487;-51
2023/11/04 04:36:08;;;;;;;0.30;0.20;;;;;;;10.52;89.30;97729.31;5015123;28;20459;-51
2023/11/04 04:38:35;;;;;;;0.30;0.20;;;;;;;10.62;89.44;97727.72;5032947;28;20455;-51
2023/11/04 04:41:02;;;;;;;0.30;0.20;;;;;;;10.61;89.36;97726.03;5031792;28;20452;-51
2023/11/04 04:43:29;;;;;;;0.30;0.20;;;;;;;10.60;89.34;97732.28;5032637;28;20448;-51
2023/11/04 04:45:55;;;;;;;0.30;0.20;;;;;;;10.58;90.14;97723.59;5032886;28;20471;-51
2023/11/04 04:48:22;;;;;;;0.30;0.20;;;;;;;10.87;88.48;97718.88;5032563;28;20498;-51
2023/11/04 04:50:49;;;;;;;0.30;0.20;;;;;;;10.77;88.61;97716.00;5032469;28;20466;-50
2023/11/04 04:53:15;;;;;;;0.30;0.20;;;;;;;10.68;88.58;97714.84;5031806;28;21026;-50
2023/11/04 04:55:41;;;;;;;0.30;0.20;;;;;;;10.68;88.53;97709.53;5032200;28;20555;-51
2023/11/04 04:58:09;;;;;;;0.30;0.20;;;;;;;10.73;88.97;97705.72;5031675;28;20452;-51
2023/11/04 05:00:35;;;;;;;0.30;0.20;;;;;;;10.67;89.32;97701.66;5032534;28;20698;-50
2023/11/04 05:03:05;;;;;;;0.30;0.20;;;;;;;10.79;89.03;97699.94;5032354;28;20448;-50
2023/11/04 05:05:32;;;;;;;0.30;0.20;;;;;;;10.82;88.64;97697.06;5029443;28;21016;-50
2023/11/04 05:07:59;;;;;;;0.30;0.20;;;;;;;10.60;89.17;97697.75;5032191;28;20949;-50
2023/11/04 05:10:26;;;;;;;0.30;0.20;;;;;;;10.56;89.86;97689.16;5032568;28;20473;-50
2023/11/04 05:12:52;;;;;;;0.30;0.20;;;;;;;10.68;89.57;97687.41;5032499;28;20494;-50
2023/11/04 05:15:19;;;;;;;0.30;0.20;;;;;;;10.56;90.12;97685.66;5032220;28;20471;-51
2023/11/04 05:17:45;;;;;;;0.30;0.20;;;;;;;10.63;90.16;97690.41;5032129;28;20452;-51
2023/11/04 05:20:12;;;;;;;0.30;0.20;;;;;;;10.64;90.49;97692.13;5032387;28;20509;-51
2023/11/04 05:22:38;;;;;;;0.30;0.20;;;;;;;10.56;90.58;97680.34;5032350;28;20447;-50
2023/11/04 05:25:06;;;;;;;0.30;0.20;;;;;;;10.68;90.44;97674.13;5032298;28;20499;-51
2023/11/04 05:27:32;;;;;;;0.30;0.20;;;;;;;10.66;89.96;97670.75;5032246;28;20553;-50
2023/11/04 05:29:59;;;;;;;0.30;0.20;;;;;;;10.68;90.25;97672.34;5031729;28;20459;-51
2023/11/04 05:32:25;;;;;;;0.30;0.20;;;;;;;10.68;90.17;97666.16;5032204;28;20451;-51
2023/11/04 05:34:52;;;;;;;0.30;0.20;;;;;;;10.68;89.82;97666.16;5021648;28;20492;-50
2023/11/04 05:37:18;;;;;;;0.30;0.20;;;;;;;10.79;89.51;97668.06;5032042;28;20452;-51
2023/11/04 05:39:45;;;;;;;0.30;0.20;;;;;;;10.60;90.23;97660.56;5032270;28;20824;-51
2023/11/04 05:42:11;;;;;;;0.30;0.20;;;;;;;10.58;90.87;97657.19;5032140;28;20450;-51
2023/11/04 05:44:38;;;;;;;0.30;0.20;;;;;;;10.60;90.43;97656.09;5032044;28;20831;-51
2023/11/04 05:47:04;;;;;;;0.30;0.20;;;;;;;10.76;89.89;97652.34;5032056;28;20452;-50
2023/11/04 05:49:31;;;;;;;0.30;0.20;;;;;;;10.83;89.82;97658.94;5032122;28;20447;-51
2023/11/04 05:51:57;;;;;;;0.30;0.20;;;;;;;10.70;89.81;97658.97;5032022;28;20803;-51
2023/11/04 05:54:24;;;;;;;0.30;0.20;;;;;;;10.60;90.22;97642.81;5031941;28;20876;-51
2023/11/04 05:56:50;;;;;;;0.30;0.20;;;;;;;10.50;90.79;97648.91;5031978;28;20554;-50
2023/11/04 05:59:17;;;;;;;0.30;0.20;;;;;;;10.65;90.01;97646.00;5031988;28;20478;-51
2023/11/04 06:01:43;;;;;;;0.30;0.20;;;;;;;10.74;89.98;97639.19;5031811;28;20451;-49
2023/11/04 06:04:10;;;;;;;0.30;0.20;;;;;;;10.67;90.18;97636.09;5027987;28;20563;-51
2023/11/04 06:06:36;;;;;;;0.30;0.20;;;;;;;10.68;90.06;97631.63;5031975;28;20447;-51
2023/11/04 06:09:03;;;;;;;0.30;0.20;;;;;;;10.68;90.09;97627.16;5033248;28;20452;-51
2023/11/04 06:11:30;;;;;;;0.30;0.20;;;;;;;10.54;90.53;97624.66;5036067;28;20538;-50
2023/11/04 06:13:56;;;;;;;0.30;0.20;;;;;;;10.60;90.40;97615.41;5035811;28;20510;-47
2023/11/04 06:16:23;;;;;;;0.30;0.20;;;;;;;10.70;90.25;97610.28;5036139;28;20455;-47
2023/11/04 06:18:50;;;;;;;0.30;0.20;;;;;;;10.64;90.28;97607.09;5035600;28;20490;-47
2023/11/04 06:21:16;;;;;;;0.30;0.20;;;;;;;10.61;90.51;97602.03;5036203;28;20453;-48
2023/11/04 06:23:43;;;;;;;0.30;0.20;;;;;;;10.57;91.09;97605.88;5036054;28;20482;-49
2023/11/04 06:26:10;;;;;;;0.30;0.20;;;;;;;10.64;90.47;97611.56;5035633;28;20455;-48
2023/11/04 06:28:36;;;;;;;0.30;0.20;;;;;;;10.77;90.09;97617.69;5035909;28;20851;-51
2023/11/04 06:31:09;;;;;;;0.30;0.20;;;;;;;10.47;91.54;97618.09;5036491;28;20462;-52
2023/11/04 06:33:36;;;;;;;0.30;0.20;;;;;;;10.52;90.87;97617.75;5035495;28;21050;-49
2023/11/04 06:36:03;;;;;;;0.30;0.20;;;;;;;10.39;91.77;97613.31;5025811;28;20961;-49
2023/11/04 06:38:29;;;;;;;0.30;0.20;;;;;;;10.54;91.00;97607.88;5035430;28;20451;-51
2023/11/04 06:40:56;;;;;;;0.30;0.20;;;;;;;10.74;90.80;97598.47;5034883;28;20535;-50
2023/11/04 06:43:22;;;;;;;0.30;0.20;;;;;;;10.72;90.41;97600.41;5035053;28;20790;-48
2023/11/04 06:45:49;;;;;;;0.30;0.20;;;;;;;10.72;90.50;97603.91;5035151;28;20472;-48
2023/11/04 06:48:15;;;;;;;0.30;0.20;;;;;;;10.76;90.26;97600.06;5035165;28;20455;-48
2023/11/04 06:50:42;;;;;;;0.30;0.20;;;;;;;10.80;90.61;97598.03;5034958;28;20455;-47
2023/11/04 06:53:08;;;;;;;0.30;0.20;;;;;;;10.81;91.04;97597.06;5034793;28;20479;-46
2023/11/04 06:55:34;;;;;;;0.30;0.20;;;;;;;10.76;90.58;97601.88;5034557;28;20471;-47
2023/11/04 06:58:01;;;;;;;0.30;0.20;;;;;;;10.78;90.09;97595.47;5035091;28;20465;-46
2023/11/04 07:00:28;;;;;;;0.30;0.20;;;;;;;10.91;90.34;97590.13;5034826;28;20531;-46
2023/11/04 07:02:54;;;;;;;0.30;0.20;;;;;;;10.86;89.90;97579.00;5035033;28;20507;-47
2023/11/04 07:05:23;;;;;;;0.30;0.20;;;;;;;11.04;89.67;97584.75;5030229;28;20483;-48
2023/11/04 07:07:50;;;;;;;0.30;0.20;;;;;;;10.89;89.63;97578.75;5034595;28;20452;-47
2023/11/04 07:10:18;;;;;;;0.30;0.20;;;;;;;10.81;90.09;97570.50;5034697;28;20488;-46
2023/11/04 07:12:44;;;;;;;0.30;0.20;;;;;;;10.98;89.56;97570.97;5034593;28;20553;-46
2023/11/04 07:15:11;;;;;;;0.30;0.20;;;;;;;10.94;89.87;97572.13;5033078;28;20499;-46
2023/11/04 07:17:37;;;;;;;0.30;0.20;;;;;;;10.87;89.82;97560.28;5033737;28;20456;-46
2023/11/04 07:20:07;;;;;;;0.30;0.20;;;;;;;11.15;89.33;97568.84;5033054;28;20455;-47
2023/11/04 07:22:34;;;;;;;0.30;0.20;;;;;;;11.00;88.93;97564.69;5033449;28;20452;-48
2023/11/04 07:25:00;;;;;;;0.30;0.20;;;;;;;10.98;89.79;97562.16;5033536;28;20503;-48
2023/11/04 07:27:27;;;;;;;0.30;0.20;;;;;;;11.04;89.50;97568.81;5033431;28;20820;-47
2023/11/04 07:29:53;;;;;;;0.30;0.20;;;;;;;10.99;89.60;97563.84;5033333;28;20448;-47
2023/11/04 07:32:20;;;;;;;0.30;0.20;;;;;;;11.21;88.99;97561.25;5033146;28;20555;-46
2023/11/04 07:34:47;;;;;;;0.30;0.20;;;;;;;11.07;88.76;97560.59;5022676;28;20498;-47
2023/11/04 07:37:14;;;;;;;0.30;0.20;;;;;;;11.42;87.84;97549.97;5017836;28;20969;-46
2023/11/04 07:39:41;;;;;;;0.30;0.20;;;;;;;11.34;87.71;97550.53;5026972;28;20502;-47
2023/11/04 07:42:07;;;;;;;0.30;0.20;;;;;;;11.27;88.78;97552.00;5020235;28;20814;-46
2023/11/04 07:44:34;;;;;;;0.40;0.40;;;;;;;11.35;87.52;97544.25;5033538;28;20555;-47
2023/11/04 07:47:05;;;;;;;0.30;0.20;;;;;;;11.38;87.35;97541.38;5020725;28;20945;-47
2023/11/04 07:49:31;;;;;;;0.30;0.20;;;;;;;11.45;87.29;97536.44;5033033;28;20542;-47
2023/11/04 07:51:57;;;;;;;0.30;0.20;;;;;;;11.35;87.34;97527.47;5032872;28;20451;-47
2023/11/04 07:54:24;;;;;;;0.30;0.20;;;;;;;11.45;86.95;97523.13;5033009;28;20495;-46
2023/11/04 07:56:51;;;;;;;0.30;0.20;;;;;;;11.67;86.28;97511.69;5033392;28;20434;-48
2023/11/04 07:59:17;;;;;;;0.30;0.20;;;;;;;11.64;86.04;97511.91;5032883;28;20992;-47
2023/11/04 08:01:44;;;;;;;0.30;0.20;;;;;;;11.59;86.31;97506.97;5033025;28;20909;-46
2023/11/04 08:04:10;;;;;;;0.30;0.20;;;;;;;11.76;85.46;97503.81;5029077;28;20557;-47
2023/11/04 08:06:37;;;;;;;0.30;0.20;;;;;;;11.75;85.64;97510.13;5032627;28;20933;-47
2023/11/04 08:09:04;;;;;;;0.30;0.20;;;;;;;11.68;86.05;97508.91;5032726;28;20486;-47
2023/11/04 08:11:31;;;;;;;0.30;0.20;;;;;;;11.76;85.89;97505.63;5032842;28;20538;-48
2023/11/04 08:13:57;;;;;;;0.30;0.20;;;;;;;11.65;86.20;97498.53;5032532;28;20487;-46
2023/11/04 08:16:24;;;;;;;0.30;0.20;;;;;;;11.81;85.47;97499.03;5032544;28;20502;-48
2023/11/04 08:18:50;;;;;;;0.30;0.20;;;;;;;11.67;86.20;97501.91;5032508;28;20932;-46
2023/11/04 08:21:17;;;;;;;0.30;0.20;;;;;;;11.69;85.97;97497.31;5032759;28;20503;-47
2023/11/04 08:23:43;;;;;;;0.30;0.20;;;;;;;11.49;86.36;97487.34;5032402;28;20502;-47
2023/11/04 08:26:10;;;;;;;0.30;0.20;;;;;;;11.44;85.95;97485.06;5032626;28;20898;-47
2023/11/04 08:28:37;;;;;;;0.30;0.20;;;;;;;11.81;85.56;97485.75;5032227;28;20562;-47
2023/11/04 08:31:04;;;;;;;0.30;0.20;;;;;;;11.58;85.89;97476.84;5031682;28;20448;-47
2023/11/04 08:33:31;;;;;;;0.30;0.20;;;;;;;11.39;86.92;97471.28;5029165;28;20448;-48
2023/11/04 08:35:59;;;;;;;0.30;0.20;;;;;;;11.88;85.24;97470.13;5023540;28;20504;-47
2023/11/04 08:38:25;;;;;;;0.30;0.20;;;;;;;11.85;85.12;97471.22;5031651;28;20571;-48
2023/11/04 08:40:52;;;;;;;0.30;0.20;;;;;;;10.98;88.48;97463.81;5022747;28;20559;-47
2023/11/04 08:43:18;;;;;;;0.30;0.20;;;;;;;11.21;88.92;97462.88;5028552;28;20458;-47
2023/11/04 08:45:45;;;;;;;0.30;0.20;;;;;;;10.91;89.69;97463.41;5032183;28;20550;-46
2023/11/04 08:48:11;;;;;;;0.30;0.20;;;;;;;10.96;89.28;97455.94;5032016;28;20448;-47
2023/11/04 08:50:38;;;;;;;0.30;0.20;;;;;;;10.82;90.61;97457.94;5032450;28;20451;-46
2023/11/04 08:53:04;;;;;;;0.30;0.20;;;;;;;10.86;90.62;97441.66;5028100;28;20551;-46
2023/11/04 08:55:31;;;;;;;0.30;0.20;;;;;;;10.56;91.66;97447.47;5023153;28;20570;-49
2023/11/04 08:57:57;;;;;;;0.30;0.20;;;;;;;10.56;91.60;97441.31;5027742;28;20452;-46
2023/11/04 09:00:24;;;;;;;0.30;0.20;;;;;;;10.59;92.12;97435.75;5026566;28;20807;-46
2023/11/04 09:02:51;;;;;;;0.30;0.20;;;;;;;10.66;91.59;97434.31;5022724;28;20493;-48
2023/11/04 09:05:18;;;;;;;0.30;0.20;;;;;;;10.41;92.43;97429.13;5022365;28;20479;-46
2023/11/04 09:07:56;;;;;;;0.30;0.20;;;;;;;10.41;92.95;97414.06;5026737;28;20452;-46
2023/11/04 09:10:23;;;;;;;0.30;0.20;;;;;;;10.41;93.20;97402.59;5022754;28;20497;-52
2023/11/04 09:12:49;;;;;;;0.30;0.20;;;;;;;10.57;92.49;97398.69;5028686;28;20462;-46
2023/11/04 09:15:16;;;;;;;0.30;0.20;;;;;;;10.58;92.66;97402.19;5030695;28;20499;-50
2023/11/04 09:17:43;;;;;;;0.30;0.20;;;;;;;10.92;91.42;97389.84;5020198;28;20468;-46
2023/11/04 09:20:10;;;;;;;0.30;0.20;;;;;;;11.14;91.08;97381.06;5028541;28;20552;-46
2023/11/04 09:22:37;;;;;;;0.30;0.20;;;;;;;11.44;90.13;97376.00;5027253;28;20457;-47
2023/11/04 09:25:05;;;;;;;0.30;0.20;;;;;;;11.26;88.87;97370.31;5029782;28;21023;-47
2023/11/04 09:27:31;;;;;;;0.30;0.20;;;;;;;11.57;88.33;97367.91;5025984;28;20448;-47
2023/11/04 09:29:58;;;;;;;0.30;0.20;;;;;;;11.43;87.71;97358.34;5030796;28;20517;-47
2023/11/04 09:32:26;;;;;;;0.30;0.20;;;;;;;11.65;87.60;97360.16;5028804;28;20455;-47
2023/11/04 09:34:52;;;;;;;0.30;0.20;;;;;;;11.75;87.42;97354.94;5028951;28;20487;-47
2023/11/04 09:37:19;;;;;;;0.30;0.20;;;;;;;11.20;89.61;97349.53;5028106;28;20464;-47
2023/11/04 09:39:45;;;;;;;0.30;0.20;;;;;;;11.35;89.22;97346.63;5030019;28;20498;-53
2023/11/04 09:42:13;;;;;;;0.30;0.20;;;;;;;11.37;89.92;97340.22;5025156;28;20480;-47
2023/11/04 09:44:40;;;;;;;0.30;0.20;;;;;;;11.56;89.40;97348.44;5031525;28;20498;-47
2023/11/04 09:47:07;;;;;;;0.30;0.20;;;;;;;11.54;88.98;97338.88;5031918;28;21307;-47
2023/11/04 09:49:33;;;;;;;0.30;0.20;;;;;;;11.70;88.96;97339.34;5030586;28;20814;-47
2023/11/04 09:52:01;;;;;;;0.30;0.20;;;;;;;11.61;89.01;97331.25;5027790;28;20448;-48
2023/11/04 09:54:29;;;;;;;0.40;0.40;;;;;;;11.77;88.61;97323.72;5031327;28;20494;-49
2023/11/04 09:56:56;;;;;;;0.30;0.20;;;;;;;11.88;87.42;97301.59;5034525;28;20551;-47
2023/11/04 09:59:25;;;;;;;0.30;0.20;;;;;;;11.87;86.82;97303.41;5031307;28;20506;-47
2023/11/04 10:01:52;;;;;;;0.30;0.20;;;;;;;11.76;87.13;97298.06;5032202;28;20447;-47
2023/11/04 10:04:18;;;;;;;0.30;0.20;;;;;;;11.66;86.73;97294.50;5024679;28;20571;-47
2023/11/04 10:06:47;;;;;;;0.30;0.20;;;;;;;11.77;86.05;97286.47;5034761;28;20487;-47
2023/11/04 10:09:13;;;;;;;0.30;0.20;;;;;;;11.79;86.29;97281.91;5035001;28;20459;-47
2023/11/04 10:11:41;;;;;;;0.30;0.20;;;;;;;11.95;85.30;97274.34;5034941;28;20826;-47
2023/11/04 10:14:08;;;;;;;0.30;0.20;;;;;;;11.76;85.65;97266.13;5034647;28;20468;-48
2023/11/04 10:16:35;;;;;;;0.30;0.20;;;;;;;11.83;85.81;97252.25;5034998;28;20454;-47
2023/11/04 10:19:02;;;;;;;0.30;0.20;;;;;;;12.11;84.89;97260.59;5034322;28;20457;-47
2023/11/04 10:21:29;;;;;;;0.30;0.20;;;;;;;12.18;84.62;97244.94;5034749;28;20509;-47
2023/11/04 10:23:55;;;;;;;0.30;0.20;;;;;;;12.13;84.76;97242.69;5034870;28;20558;-47
2023/11/04 10:26:27;;;;;;;0.30;0.20;;;;;;;12.15;84.40;97235.41;5034878;28;20883;-50
2023/11/04 10:28:54;;;;;;;0.30;0.20;;;;;;;12.52;83.25;97235.81;5029734;28;20942;-47
2023/11/04 10:31:24;;;;;;;0.30;0.20;;;;;;;12.52;83.23;97222.47;5032906;28;20940;-47
2023/11/04 10:33:55;;;;;;;0.30;0.20;;;;;;;12.38;83.09;97215.66;5032134;28;20486;-48
2023/11/04 10:36:23;;;;;;;0.30;0.20;;;;;;;12.58;82.61;97203.28;5027567;28;20455;-47
2023/11/04 10:38:57;;;;;;;0.30;0.20;;;;;;;12.23;83.23;97200.16;5034432;28;21258;-49
2023/11/04 10:41:37;;;;;;;0.30;0.20;;;;;;;12.41;83.02;97190.59;5034709;28;20468;-47
2023/11/04 10:44:12;;;;;;;0.30;0.20;;;;;;;12.59;82.19;97188.16;5034585;28;20467;-47
2023/11/04 10:46:49;;;;;;;0.30;0.20;;;;;;;12.49;82.57;97179.28;5034122;28;20522;-47
2023/11/04 10:49:45;;;;;;;0.30;0.20;;;;;;;12.43;81.98;97167.31;5022174;28;20461;-49
2023/11/04 10:52:13;;;;;;;0.30;0.20;;;;;;;12.59;82.60;97170.34;5022705;28;20452;-47
2023/11/04 10:54:54;;;;;;;0.30;0.20;;;;;;;12.52;83.02;97173.69;5033042;28;20495;-47
2023/11/04 10:57:31;;;;;;;0.30;0.20;;;;;;;12.42;84.40;97173.63;5033800;28;20444;-47
2023/11/04 11:00:25;;;;;;;0.30;0.20;;;;;;;12.11;85.15;97162.94;5026873;28;20456;-47
2023/11/04 11:02:52;;;;;;;0.30;0.20;;;;;;;12.35;85.24;97159.16;5031383;28;20454;-47
2023/11/04 11:05:24;;;;;;;0.30;0.20;;;;;;;12.33;85.09;97159.25;5030282;28;20474;-47
2023/11/04 11:07:52;;;;;;;0.30;0.20;;;;;;;12.15;85.31;97148.38;5034002;28;20451;-47
2023/11/04 11:10:25;;;;;;;0.30;0.20;;;;;;;12.40;84.52;97147.13;5033875;28;20813;-47
2023/11/04 11:13:19;;;;;;;0.30;0.20;;;;;;;12.32;84.74;97141.59;5033561;28;20455;-47
2023/11/04 11:15:47;;;;;;;0.30;0.20;;;;;;;12.58;83.85;97123.34;5022309;28;20549;-49
2023/11/04 11:18:25;;;;;;;0.30;0.20;;;;;;;12.23;84.92;97131.75;5033991;28;20535;-47
2023/11/04 11:20:52;;;;;;;0.30;0.20;;;;;;;12.27;85.67;97116.34;5033804;28;20534;-49
2023/11/04 11:23:28;;;;;;;0.30;0.20;;;;;;;12.24;85.70;97116.63;5034050;28;20458;-47
2023/11/04 11:26:05;;;;;;;0.30;0.20;;;;;;;12.49;85.20;97097.53;5033816;28;20462;-47
2023/11/04 11:28:37;;;;;;;0.30;0.20;;;;;;;12.48;85.01;97097.69;5033723;28;21012;-47
2023/11/04 11:31:08;;;;;;;0.30;0.20;;;;;;;12.40;85.31;97090.34;5033638;28;20444;-47
2023/11/04 11:33:34;;;;;;;0.30;0.20;;;;;;;12.35;85.98;97079.25;5019767;28;20516;-47
2023/11/04 11:36:07;;;;;;;0.30;0.20;;;;;;;12.37;87.01;97071.97;5022611;28;20579;-47